Flight Track Log - Related Links

Times and Time Zones

All times are in EDT time to prevent confusion due to time zone crossing. See the ASA122 flight status page for this flight to view local times or setup timezone preferences in your user account.

Time Position Orientation Groundspeed Altitude Reporting Facility
EDT Latitude Longitude Course Direction KTS MPH feet Rate Location/Type
Wed 01:00:31 PM 64.7833 -147.7167 124° Southeast 250 288 4,400  Level Anchorage Center
Wed 01:01:31 PM 64.7333 -147.6333 145° Southeast 260 299 7,600 3,126 Climbing Anchorage Center
Wed 01:02:30 PM 64.6667 -147.5333 147° Southeast 280 322 10,600 2,350 Climbing Anchorage Center
Wed 01:03:31 PM 64.6167 -147.3667 125° Southeast 320 368 12,300 2,132 Climbing Anchorage Center
Wed 01:04:31 PM 64.5667 -147.1667 120° Southeast 350 403 14,900 2,400 Climbing Anchorage Center
Wed 01:05:00 PM 64.3489 -146.5568 124° Southeast  Level Estimated
Wed 01:05:31 PM 64.5167 -146.9833 122° Southeast 360 414 17,100  Level Anchorage Center
Wed 01:06:31 PM 64.4500 -146.7667 125° Southeast 380 437 19,600 2,200 Climbing Anchorage Center
Wed 01:07:31 PM 64.4000 -146.5500 118° Southeast 400 460 21,500 1,900 Climbing Anchorage Center
Wed 01:08:31 PM 64.3333 -146.3167 123° Southeast 410 472 23,400 1,800 Climbing Anchorage Center
Wed 01:09:31 PM 64.2667 -146.1000 125° Southeast 430 495 25,100 1,550 Climbing Anchorage Center
Wed 01:10:31 PM 64.2000 -145.8667 123° Southeast 440 506 26,500 1,400 Climbing Anchorage Center
Wed 01:11:31 PM 64.1333 -145.6167 121° Southeast 450 518 27,900 1,550 Climbing Anchorage Center
Wed 01:12:31 PM 64.0667 -145.3833 123° Southeast 460 529 29,600 1,537 Climbing Anchorage Center
Wed 01:13:32 PM 63.9833 -145.1333 127° Southeast 450 518 31,000 700 Climbing Anchorage Center
Wed 01:14:31 PM 63.9167 -144.9167 125° Southeast 450 518 31,000  Level Anchorage Center
Wed 01:15:32 PM 63.8500 -144.6833 123° Southeast 450 518 31,000  Level Anchorage Center
Wed 01:16:32 PM 63.7667 -144.4500 129° Southeast 460 529 31,000  Level Anchorage Center
Wed 01:17:32 PM 63.7000 -144.2167 123° Southeast 450 518 31,000  Level Anchorage Center
Wed 01:18:32 PM 63.6333 -143.9667 121° Southeast 460 529 31,000  Level Anchorage Center
Wed 01:19:32 PM 63.5500 -143.7500 131° Southeast 460 529 31,000  Level Anchorage Center
Wed 01:20:32 PM 63.4833 -143.5000 121° Southeast 460 529 31,000  Level Anchorage Center
Wed 01:21:32 PM 63.4000 -143.2667 129° Southeast 460 529 31,000  Level Anchorage Center
Wed 01:22:32 PM 63.3167 -143.0500 131° Southeast 470 541 31,000  Level Anchorage Center
Wed 01:23:33 PM 63.2500 -142.8167 122° Southeast 470 541 31,000  Level Anchorage Center
Wed 01:24:33 PM 63.1667 -142.5833 128° Southeast 460 529 31,000  Level Anchorage Center
Wed 01:25:33 PM 63.1000 -142.3500 122° Southeast 470 541 31,000  Level Anchorage Center
Wed 01:26:33 PM 63.0167 -142.1167 128° Southeast 450 518 31,000  Level Anchorage Center
Wed 01:27:33 PM 62.9333 -141.9000 130° Southeast 460 529 31,000  Level Anchorage Center
Wed 01:28:33 PM 62.8500 -141.7167 135° Southeast 440 506 31,000  Level Anchorage Center
Wed 01:29:33 PM 62.7500 -141.5333 140° Southeast 440 506 31,000  Level Anchorage Center
Wed 01:32:00 PM 62.6167 -141.2807 139° Southeast  Level FlightAware Approximate
Wed 01:39:00 PM 61.9327 -140.1882 143° Southeast  Level FlightAware Approximate
Wed 01:40:00 PM 61.8343 -140.0362 144° Southeast  Level FlightAware Approximate
Wed 01:41:00 PM 61.7357 -139.8851 144° Southeast  Level FlightAware Approximate
Wed 01:42:00 PM 61.6370 -139.7349 144° Southeast  Level FlightAware Approximate
Wed 01:43:00 PM 61.5381 -139.5858 144° Southeast  Level FlightAware Approximate
Wed 01:43:30 PM 61.4500 -139.1833 145° Southeast 430 495 31,000  Level Anchorage Center
Wed 01:44:00 PM 61.4390 -139.4375 144° Southeast  Level FlightAware Approximate
Wed 01:44:29 PM 61.3500 -139.0167 141° Southeast 440 506 31,000  Level Anchorage Center
Wed 01:45:00 PM 61.3398 -139.2903 145° Southeast  Level FlightAware Approximate
Wed 01:45:30 PM 61.2667 -138.8833 142° Southeast 430 495 31,000  Level Anchorage Center
Wed 01:46:00 PM 61.2404 -139.1439 145° Southeast  Level FlightAware Approximate
Wed 01:46:30 PM 61.1667 -138.7500 147° Southeast 430 495 31,000  Level Anchorage Center
Wed 01:47:00 PM 61.1409 -138.9985 145° Southeast  Level FlightAware Approximate
Wed 01:47:30 PM 61.0500 -138.6167 151° Southeast 420 483 31,000  Level Anchorage Center
Wed 01:48:00 PM 61.0412 -138.8539 145° Southeast  Level FlightAware Approximate
Wed 01:48:30 PM 60.9500 -138.5000 150° Southeast 420 483 31,000  Level Anchorage Center
Wed 01:49:30 PM 60.8500 -138.3667 147° Southeast 430 495 31,000  Level Anchorage Center
Wed 01:50:31 PM 60.7500 -138.2333 147° Southeast 430 495 31,000  Level Anchorage Center
Wed 01:51:30 PM 60.6500 -138.1000 147° Southeast 430 495 31,000  Level Anchorage Center
Wed 01:52:31 PM 60.5500 -137.9833 150° Southeast 430 495 31,000  Level Anchorage Center
Wed 01:53:31 PM 60.4500 -137.8500 147° Southeast 430 495 31,000  Level Anchorage Center
Wed 01:54:31 PM 60.3500 -137.7167 147° Southeast 430 495 31,000  Level Anchorage Center
Wed 01:55:31 PM 60.2333 -137.6000 154° Southeast 430 495 31,000  Level Anchorage Center
Wed 01:56:31 PM 60.1333 -137.4667 146° Southeast 430 495 31,000  Level Anchorage Center
Wed 01:57:31 PM 60.0333 -137.3500 150° Southeast 430 495 31,000  Level Anchorage Center
Wed 01:58:31 PM 59.9333 -137.2333 150° Southeast 430 495 31,000  Level Anchorage Center
Wed 01:59:31 PM 59.8333 -137.1000 146° Southeast 420 483 31,000  Level Anchorage Center
Wed 02:00:31 PM 59.7333 -136.9833 150° Southeast 420 483 31,000  Level Anchorage Center
Wed 02:01:31 PM 59.6333 -136.8667 149° Southeast 430 495 31,000  Level Anchorage Center
Wed 02:02:31 PM 59.5167 -136.7500 153° Southeast 430 495 31,000  Level Anchorage Center
Wed 02:03:32 PM 59.4167 -136.6333 149° Southeast 430 495 31,000  Level Anchorage Center
Wed 02:04:32 PM 59.3167 -136.5000 146° Southeast 430 495 31,000  Level Anchorage Center
Wed 02:05:32 PM 59.2167 -136.3833 149° Southeast 420 483 31,000  Level Anchorage Center
Wed 02:06:32 PM 59.1167 -136.2667 149° Southeast 420 483 31,000  Level Anchorage Center
Wed 02:07:32 PM 59.0167 -136.1500 149° Southeast 430 495 31,000  Level Anchorage Center
Wed 02:08:32 PM 58.9000 -136.0500 156° South 430 495 31,000  Level Anchorage Center
Wed 02:09:32 PM 58.8167 -135.9167 140° Southeast 430 495 31,000  Level Anchorage Center
Wed 02:10:32 PM 58.7167 -135.7500 139° Southeast 450 518 31,000 300 Level Anchorage Center
Wed 02:11:32 PM 58.6333 -135.5833 134° Southeast 450 518 31,600 992 Climbing Anchorage Center
Wed 02:12:33 PM 58.5333 -135.4333 142° Southeast 450 518 33,000 694 Climbing Anchorage Center
Wed 02:13:33 PM 58.4333 -135.2833 142° Southeast 440 506 33,000  Level Anchorage Center
Wed 02:14:33 PM 58.3500 -135.1167 134° Southeast 440 506 33,000  Level Anchorage Center
Wed 02:15:33 PM 58.2500 -134.9667 142° Southeast 440 506 33,000  Level Anchorage Center
Wed 02:16:33 PM 58.1667 -134.8167 136° Southeast 450 518 33,000  Level Anchorage Center
Wed 02:17:33 PM 58.0667 -134.6667 142° Southeast 440 506 33,000  Level Anchorage Center
Wed 02:18:34 PM 57.9667 -134.5167 141° Southeast 440 506 33,000  Level Anchorage Center
Wed 02:19:33 PM 57.8667 -134.3667 141° Southeast 450 518 33,000  Level Anchorage Center
Wed 02:20:33 PM 57.7833 -134.2167 136° Southeast 450 518 33,000  Level Anchorage Center
Wed 02:21:33 PM 57.6833 -134.0667 141° Southeast 450 518 33,000  Level Anchorage Center
Wed 02:22:34 PM 57.5833 -133.9167 141° Southeast 450 518 33,000  Level Anchorage Center
Wed 02:23:34 PM 57.4833 -133.7667 141° Southeast 450 518 33,000  Level Anchorage Center
Wed 02:24:34 PM 57.3833 -133.6167 141° Southeast 450 518 33,000  Level Anchorage Center
Wed 02:25:34 PM 57.3167 -133.5000 137° Southeast 450 518 33,000  Level Anchorage Center
Wed 02:26:34 PM 57.2167 -133.3500 141° Southeast 450 518 33,000  Level Anchorage Center
Wed 02:27:34 PM 57.1167 -133.2000 141° Southeast 450 518 33,000  Level Anchorage Center
Wed 02:28:34 PM 57.0167 -133.0667 144° Southeast 450 518 33,000  Level Anchorage Center
Wed 02:29:35 PM 56.9167 -132.9167 141° Southeast 460 529 33,000  Level Anchorage Center
Wed 02:30:34 PM 56.8167 -132.7667 141° Southeast 460 529 33,000  Level Anchorage Center
Wed 02:31:34 PM 56.7167 -132.6167 141° Southeast 460 529 33,000  Level Anchorage Center
Wed 02:32:35 PM 56.6167 -132.4833 144° Southeast 470 541 33,000  Level Anchorage Center
Wed 02:33:35 PM 56.5167 -132.3333 140° Southeast 460 529 33,000  Level Anchorage Center
Wed 02:34:35 PM 56.4167 -132.2000 144° Southeast 460 529 33,000  Level Anchorage Center
Wed 02:35:35 PM 56.3167 -132.0500 140° Southeast 470 541 33,000  Level Anchorage Center
Wed 02:36:35 PM 56.2167 -131.9000 140° Southeast 460 529 33,000  Level Anchorage Center
Wed 02:37:35 PM 56.1167 -131.7667 143° Southeast 470 541 33,000  Level Anchorage Center
Wed 02:38:35 PM 56.0167 -131.6167 140° Southeast 470 541 33,000  Level Anchorage Center
Wed 02:39:35 PM 55.9000 -131.4833 147° Southeast 470 541 33,000  Level Anchorage Center
Wed 02:40:36 PM 55.7833 -131.3167 141° Southeast 480 552 33,000  Level Anchorage Center
Wed 02:41:35 PM 55.6833 -131.1833 143° Southeast 470 541 33,000  Level Anchorage Center
Wed 02:42:36 PM 55.5833 -131.0500 143° Southeast 470 541 33,000  Level Anchorage Center
Wed 02:43:36 PM 55.4667 -130.9000 144° Southeast 470 541 33,000  Level Anchorage Center
Wed 02:44:36 PM 55.3667 -130.7667 143° Southeast 470 541 33,000  Level Anchorage Center
Wed 02:45:36 PM 55.2667 -130.6333 143° Southeast 470 541 33,000  Level Anchorage Center
Wed 02:46:36 PM 55.1667 -130.5000 143° Southeast 480 552 33,000  Level Anchorage Center
Wed 02:47:36 PM 55.0500 -130.3500 144° Southeast 480 552 33,000  Level Anchorage Center
Wed 02:49:43 PM 54.8167 -130.1167 150° Southeast 480 552 33,000  Level Vancouver Center
Wed 02:50:43 PM 54.7167 -129.9500 136° Southeast 480 552 33,000  Level Vancouver Center
Wed 02:51:43 PM 54.6167 -129.8167 142° Southeast 490 564 33,000  Level Vancouver Center
Wed 02:52:43 PM 54.5000 -129.6833 146° Southeast 480 552 33,000  Level Vancouver Center
Wed 02:53:43 PM 54.4000 -129.5667 146° Southeast 480 552 33,000  Level Vancouver Center
Wed 02:54:43 PM 54.2833 -129.4000 140° Southeast 480 552 33,000  Level Vancouver Center
Wed 02:55:43 PM 54.1833 -129.2667 142° Southeast 490 564 33,000  Level Vancouver Center
Wed 02:56:43 PM 54.0833 -129.1500 146° Southeast 490 564 33,000  Level Vancouver Center
Wed 02:57:43 PM 53.9667 -129.0167 146° Southeast 490 564 33,000  Level Vancouver Center
Wed 02:58:43 PM 53.8500 -128.9000 149° Southeast 490 564 33,000  Level Vancouver Center
Wed 02:59:43 PM 53.7333 -128.7333 140° Southeast 490 564 33,000  Level Vancouver Center
Wed 03:00:43 PM 53.6333 -128.6167 145° Southeast 480 552 33,000  Level Vancouver Center
Wed 03:01:43 PM 53.5167 -128.4833 146° Southeast 480 552 33,000  Level Vancouver Center
Wed 03:02:43 PM 53.4167 -128.3667 145° Southeast 490 564 33,000  Level Vancouver Center
Wed 03:03:43 PM 53.3000 -128.2167 142° Southeast 480 552 33,000  Level Vancouver Center
Wed 03:04:43 PM 53.1833 -128.0833 146° Southeast 500 575 33,000  Level Vancouver Center
Wed 03:05:43 PM 53.0833 -127.9667 145° Southeast 480 552 33,000  Level Vancouver Center
Wed 03:06:43 PM 52.9667 -127.8500 149° Southeast 480 552 33,000  Level Vancouver Center
Wed 03:07:43 PM 52.8667 -127.7167 141° Southeast 480 552 33,000  Level Vancouver Center
Wed 03:08:43 PM 52.7500 -127.5833 145° Southeast 480 552 33,000  Level Vancouver Center
Wed 03:09:43 PM 52.6333 -127.4500 145° Southeast 480 552 33,000  Level Vancouver Center
Wed 03:10:43 PM 52.5333 -127.3333 145° Southeast 480 552 33,000  Level Vancouver Center
Wed 03:11:43 PM 52.4167 -127.2167 149° Southeast 490 564 33,000  Level Vancouver Center
Wed 03:12:43 PM 52.3000 -127.0667 142° Southeast 490 564 33,000  Level Vancouver Center
Wed 03:13:43 PM 52.1833 -126.9500 148° Southeast 490 564 33,000  Level Vancouver Center
Wed 03:14:43 PM 52.0667 -126.8333 148° Southeast 490 564 33,000  Level Vancouver Center
Wed 03:15:43 PM 51.9500 -126.7167 148° Southeast 490 564 33,000  Level Vancouver Center
Wed 03:16:43 PM 51.8500 -126.6167 148° Southeast 490 564 33,000  Level Vancouver Center
Wed 03:17:43 PM 51.7333 -126.4667 141° Southeast 490 564 33,000  Level Vancouver Center
Wed 03:18:43 PM 51.6167 -126.3500 148° Southeast 490 564 33,000  Level Vancouver Center
Wed 03:19:43 PM 51.5167 -126.2333 144° Southeast 490 564 33,000  Level Vancouver Center
Wed 03:20:43 PM 51.3833 -126.1333 155° Southeast 480 552 33,000  Level Vancouver Center
Wed 03:21:43 PM 51.2833 -126.0167 144° Southeast 480 552 33,000  Level Vancouver Center
Wed 03:22:43 PM 51.1667 -125.8833 144° Southeast 480 552 33,000  Level Vancouver Center
Wed 03:23:43 PM 51.0667 -125.7667 144° Southeast 490 564 33,000  Level Vancouver Center
Wed 03:24:43 PM 50.9500 -125.6500 148° Southeast 490 564 33,000  Level Vancouver Center
Wed 03:25:43 PM 50.8333 -125.5167 144° Southeast 500 575 33,000  Level Vancouver Center
Wed 03:26:43 PM 50.7167 -125.4000 148° Southeast 500 575 33,000  Level Vancouver Center
Wed 03:27:43 PM 50.5833 -125.3000 155° Southeast 500 575 33,000  Level Vancouver Center
Wed 03:28:43 PM 50.4833 -125.1833 143° Southeast 500 575 33,000  Level Vancouver Center
Wed 03:29:43 PM 50.3500 -125.0500 147° Southeast 500 575 33,000  Level Vancouver Center
Wed 03:30:43 PM 50.2333 -124.9500 151° Southeast 500 575 33,000  Level Vancouver Center
Wed 03:31:43 PM 50.1333 -124.8333 143° Southeast 490 564 33,000  Level Vancouver Center
Wed 03:32:43 PM 50.0000 -124.7000 147° Southeast 500 575 33,000  Level Vancouver Center
Wed 03:33:43 PM 49.8833 -124.6000 151° Southeast 490 564 33,000  Level Vancouver Center
Wed 03:34:43 PM 49.7667 -124.5000 151° Southeast 500 575 33,000  Level Vancouver Center
Wed 03:35:43 PM 49.6500 -124.3667 143° Southeast 490 564 33,000  Level Vancouver Center
Wed 03:36:43 PM 49.5333 -124.2667 151° Southeast 500 575 33,000  Level Vancouver Center
Wed 03:37:43 PM 49.4167 -124.1667 151° Southeast 500 575 33,000  Level Vancouver Center
Wed 03:38:43 PM 49.3000 -124.0333 143° Southeast 500 575 33,000  Level Vancouver Center
Wed 03:39:43 PM 49.1833 -123.9333 151° Southeast 500 575 33,000  Level Vancouver Center
Wed 03:40:43 PM 49.0667 -123.8167 147° Southeast 500 575 33,000  Level Vancouver Center
Wed 03:41:43 PM 48.9500 -123.7000 147° Southeast 500 575 33,000  Level Vancouver Center
Wed 03:42:43 PM 48.8333 -123.6000 151° Southeast 500 575 33,000  Level Vancouver Center
Wed 03:43:43 PM 48.7167 -123.5000 151° Southeast 500 575 33,000 -1,150 Level Vancouver Center
Wed 03:44:43 PM 48.6000 -123.3667 143° Southeast 500 575 30,700 -2,450 Descending Vancouver Center
Wed 03:45:43 PM 48.4833 -123.2667 150° Southeast 500 575 28,100 -2,450 Descending Vancouver Center
Wed 03:46:43 PM 48.3667 -123.1667 150° Southeast 480 552 25,800 -2,350 Descending Vancouver Center
Wed 03:47:43 PM 48.2500 -123.0500 146° Southeast 460 529 23,400 -2,138 Descending Vancouver Center
Wed 03:48:10 PM 48.2400 -123.0336 132° Southeast 454 522 22,700 -1,841 Descending Seattle Center
Wed 03:49:11 PM 48.1389 -122.9411 149° Southeast 437 503 20,700 -2,211 Descending Seattle Center
Wed 03:49:45 PM 48.0675 -122.8786 150° Southeast 414 476 19,200 -2,377 Descending Seattle Center
Wed 03:50:04 PM 48.0386 -122.8514 148° Southeast 409 471 18,600 -750 Descending Seattle Center
Wed 03:51:05 PM 47.9467 -122.7661 148° Southeast 380 437 18,200 -1,466 Descending Seattle Center
Wed 03:52:15 PM 47.8417 -122.6722 149° Southeast 382 440 15,400 -2,331 Descending Seattle Center
Wed 03:53:06 PM 47.7647 -122.6053 150° Southeast 361 415 13,500 -1,820 Descending Seattle Center
Wed 03:54:17 PM 47.6706 -122.5189 148° Southeast 322 371 11,700 -1,561 Descending Seattle Center
Wed 03:55:09 PM 47.6103 -122.4667 150° Southeast 304 350 10,300 -1,339 Descending Seattle Center
Wed 03:56:09 PM 47.5303 -122.4581 176° South 279 321 9,200 -1,008 Descending Seattle Center
Wed 03:57:20 PM 47.4467 -122.4617 182° South 256 295 8,100 -1,091 Descending Seattle Center
Wed 03:58:21 PM 47.3800 -122.4636 181° South 243 280 6,800 -1,119 Descending Seattle Center
Wed 03:59:18 PM 47.3169 -122.4669 182° South 229 264 5,900 -1,119 Descending Seattle Center
Wed 04:00:19 PM 47.2575 -122.4506 169° South 219 252 4,600 -1,238 Descending Seattle Center
Wed 04:01:24 PM 47.2642 -122.3744 83° East 216 249 3,300 -1,077 Descending Seattle Center
Wed 04:02:16 PM 47.2994 -122.3097 51° Northeast 199 229 2,500 -763 Descending Seattle Center
Wed 04:03:22 PM 47.3508 -122.3111 359° North 159 183 1,800 -614 Descending Seattle Center
Wed 04:04:23 PM 47.3922 -122.3078 North 145 167 1,200 -672 Descending Seattle Center
Wed 04:05:18 PM 47.4258 -122.3089 359° North 129 148 500 -764 Descending Seattle Center
Wed 04:07:00 PM 47.4333 -122.3000 29° Northeast  Level FlightAware Approximate

Login

Don't have an account? Register now (free) for customized features, flight alerts, and more!